メインページ
METAR-TAF:

METAR-TAF

空港 :

ヴォルゴグラード国際空港

ヴォルゴグラード, ロシア

緯度: 48-47N, 経度: 044-22E, 海抜: 145m

現時点の気象観測

当レポートは39分前の05:00(UTC)に作成
の風 8kt
気温 11°C
湿度 76%
気圧 1022 hPa
視程10km以上
1,500メートル以下は雲なし、積乱雲なし

METAR: URWW 220500Z 09004MPS CAVOK 11/07 Q1022 R06/010070 TEMPO -TSRA BKN020CB

時間: 08:39 (05:39 UTC)

予報

当レポートは42分前の04:57(UTC)に作成
予報は22日の 06時(UTC)から 22日の 15時(UTC)まで有効
の風 14kt、最大25ktの突風を伴う
視程: 3100m
高度1100ftの千切れ雲あり
高度2000ftの千切れ雲あり, 積乱雲.
弱いにわか雨, 靄
22日の 06時(UTC)から 22日の 15時(UTC)まで一時的に
東/南東の風 10kt、最大19ktの突風を伴う
確率 40% :
22日の 06時(UTC)から 22日の 15時(UTC)まで一時的に
激しい雷雨, 小雨

TAF: URWW 220457Z 2206/2215 08007G13MPS 3100 -SHRA BR BKN011 BKN020CB TEMPO 2206/2215 11005G10MPS PROB40 TEMPO 2206/2215 -TSRA

4,000以上の空港の気象観測と天気予報(METAR報とTAF報)

利用可能な観測所は地図上に黄色い丸と赤い丸で示す。

丸の上にカーソルを重ねると観測所名を参照できる。

次にクリックすると気象観測と天気予報を参照できる。

マップの切り替え:黒色「×」印の緑ボタンをクリックして拡大、「-」印の緑ボタンをクリックして縮小、緑色の三角印をクリックして隣りの地図に切り替え


METAR-TAF: